sensor_id;sensor_type;location;lat;lon;timestamp;P1;durP1;ratioP1;P2;durP2;ratioP2
25988;SDS011;13778;48.236;9.894;2023-03-14T00:01:18;4.18;;;0.93;;
25988;SDS011;13778;48.236;9.894;2023-03-14T00:04:10;2.38;;;0.70;;
25988;SDS011;13778;48.236;9.894;2023-03-14T00:07:00;5.50;;;0.80;;
25988;SDS011;13778;48.236;9.894;2023-03-14T00:09:51;1.30;;;0.45;;
25988;SDS011;13778;48.236;9.894;2023-03-14T00:12:41;0.63;;;0.63;;
25988;SDS011;13778;48.236;9.894;2023-03-14T00:15:33;3.72;;;0.50;;
25988;SDS011;13778;48.236;9.894;2023-03-14T00:18:23;2.25;;;0.50;;
25988;SDS011;13778;48.236;9.894;2023-03-14T00:21:14;2.67;;;0.75;;
25988;SDS011;13778;48.236;9.894;2023-03-14T00:24:05;1.95;;;0.60;;
25988;SDS011;13778;48.236;9.894;2023-03-14T00:26:55;1.65;;;0.73;;
25988;SDS011;13778;48.236;9.894;2023-03-14T00:29:45;2.83;;;0.65;;
25988;SDS011;13778;48.236;9.894;2023-03-14T00:32:37;2.28;;;0.30;;
25988;SDS011;13778;48.236;9.894;2023-03-14T00:35:28;1.38;;;0.85;;
25988;SDS011;13778;48.236;9.894;2023-03-14T00:38:18;1.85;;;0.98;;
25988;SDS011;13778;48.236;9.894;2023-03-14T00:41:09;1.08;;;0.40;;
25988;SDS011;13778;48.236;9.894;2023-03-14T00:44:00;0.93;;;0.52;;
25988;SDS011;13778;48.236;9.894;2023-03-14T00:46:51;0.32;;;0.32;;
25988;SDS011;13778;48.236;9.894;2023-03-14T00:49:42;2.33;;;0.60;;
25988;SDS011;13778;48.236;9.894;2023-03-14T00:52:33;0.35;;;0.35;;
25988;SDS011;13778;48.236;9.894;2023-03-14T00:55:24;0.40;;;0.30;;
25988;SDS011;13778;48.236;9.894;2023-03-14T00:58:15;1.02;;;0.50;;
25988;SDS011;13778;48.236;9.894;2023-03-14T01:01:07;1.95;;;0.40;;
25988;SDS011;13778;48.236;9.894;2023-03-14T01:03:57;0.20;;;0.20;;
25988;SDS011;13778;48.236;9.894;2023-03-14T01:06:49;1.95;;;0.50;;
25988;SDS011;13778;48.236;9.894;2023-03-14T01:09:40;0.57;;;0.40;;
25988;SDS011;13778;48.236;9.894;2023-03-14T01:12:30;1.92;;;0.80;;
25988;SDS011;13778;48.236;9.894;2023-03-14T01:15:21;0.30;;;0.30;;
25988;SDS011;13778;48.236;9.894;2023-03-14T01:18:12;0.95;;;0.30;;
25988;SDS011;13778;48.236;9.894;2023-03-14T01:21:02;0.68;;;0.40;;
25988;SDS011;13778;48.236;9.894;2023-03-14T01:23:55;2.08;;;0.60;;
25988;SDS011;13778;48.236;9.894;2023-03-14T01:26:45;0.40;;;0.28;;
25988;SDS011;13778;48.236;9.894;2023-03-14T01:29:35;3.10;;;0.70;;
25988;SDS011;13778;48.236;9.894;2023-03-14T01:32:26;0.52;;;0.30;;
25988;SDS011;13778;48.236;9.894;2023-03-14T01:35:16;0.35;;;0.35;;
25988;SDS011;13778;48.236;9.894;2023-03-14T01:38:07;0.75;;;0.38;;
25988;SDS011;13778;48.236;9.894;2023-03-14T01:40:59;1.13;;;0.50;;
25988;SDS011;13778;48.236;9.894;2023-03-14T01:43:49;0.30;;;0.30;;
25988;SDS011;13778;48.236;9.894;2023-03-14T01:46:40;0.43;;;0.32;;
25988;SDS011;13778;48.236;9.894;2023-03-14T01:49:31;0.70;;;0.45;;
25988;SDS011;13778;48.236;9.894;2023-03-14T01:52:23;0.40;;;0.38;;
25988;SDS011;13778;48.236;9.894;2023-03-14T01:55:16;0.30;;;0.30;;
25988;SDS011;13778;48.236;9.894;2023-03-14T01:58:08;0.47;;;0.35;;
25988;SDS011;13778;48.236;9.894;2023-03-14T02:00:59;1.45;;;0.20;;
25988;SDS011;13778;48.236;9.894;2023-03-14T02:03:51;1.17;;;0.40;;
25988;SDS011;13778;48.236;9.894;2023-03-14T02:06:44;0.22;;;0.22;;
25988;SDS011;13778;48.236;9.894;2023-03-14T02:09:37;0.93;;;0.30;;
25988;SDS011;13778;48.236;9.894;2023-03-14T02:12:28;0.25;;;0.25;;
25988;SDS011;13778;48.236;9.894;2023-03-14T02:15:20;0.30;;;0.30;;
25988;SDS011;13778;48.236;9.894;2023-03-14T02:21:01;0.30;;;0.30;;
25988;SDS011;13778;48.236;9.894;2023-03-14T02:23:57;0.25;;;0.25;;
25988;SDS011;13778;48.236;9.894;2023-03-14T02:27:02;0.30;;;0.30;;
25988;SDS011;13778;48.236;9.894;2023-03-14T02:29:53;0.52;;;0.28;;
25988;SDS011;13778;48.236;9.894;2023-03-14T02:32:45;0.30;;;0.30;;
25988;SDS011;13778;48.236;9.894;2023-03-14T02:35:37;0.10;;;0.10;;
25988;SDS011;13778;48.236;9.894;2023-03-14T02:38:31;0.28;;;0.28;;
25988;SDS011;13778;48.236;9.894;2023-03-14T02:41:23;0.57;;;0.40;;
25988;SDS011;13778;48.236;9.894;2023-03-14T02:44:15;0.30;;;0.30;;
25988;SDS011;13778;48.236;9.894;2023-03-14T02:47:06;0.90;;;0.40;;
25988;SDS011;13778;48.236;9.894;2023-03-14T02:49:58;0.30;;;0.30;;
25988;SDS011;13778;48.236;9.894;2023-03-14T02:52:49;0.50;;;0.50;;
25988;SDS011;13778;48.236;9.894;2023-03-14T02:55:40;0.30;;;0.30;;
25988;SDS011;13778;48.236;9.894;2023-03-14T02:58:34;0.68;;;0.60;;
25988;SDS011;13778;48.236;9.894;2023-03-14T03:01:26;1.63;;;0.57;;
25988;SDS011;13778;48.236;9.894;2023-03-14T03:07:06;0.77;;;0.40;;
25988;SDS011;13778;48.236;9.894;2023-03-14T03:09:57;0.77;;;0.47;;
25988;SDS011;13778;48.236;9.894;2023-03-14T03:12:47;0.40;;;0.40;;
25988;SDS011;13778;48.236;9.894;2023-03-14T03:15:38;0.52;;;0.40;;
25988;SDS011;13778;48.236;9.894;2023-03-14T03:18:30;0.32;;;0.30;;
25988;SDS011;13778;48.236;9.894;2023-03-14T03:24:12;0.40;;;0.40;;
25988;SDS011;13778;48.236;9.894;2023-03-14T03:27:03;0.30;;;0.30;;
25988;SDS011;13778;48.236;9.894;2023-03-14T03:29:53;0.30;;;0.30;;
25988;SDS011;13778;48.236;9.894;2023-03-14T03:32:44;0.40;;;0.40;;
25988;SDS011;13778;48.236;9.894;2023-03-14T03:35:40;0.30;;;0.30;;
25988;SDS011;13778;48.236;9.894;2023-03-14T03:38:31;0.60;;;0.50;;
25988;SDS011;13778;48.236;9.894;2023-03-14T03:41:21;0.30;;;0.30;;
25988;SDS011;13778;48.236;9.894;2023-03-14T03:44:12;0.47;;;0.47;;
25988;SDS011;13778;48.236;9.894;2023-03-14T03:47:02;0.28;;;0.28;;
25988;SDS011;13778;48.236;9.894;2023-03-14T03:49:53;0.35;;;0.35;;
25988;SDS011;13778;48.236;9.894;2023-03-14T03:52:45;0.80;;;0.70;;
25988;SDS011;13778;48.236;9.894;2023-03-14T03:58:25;2.38;;;2.28;;
25988;SDS011;13778;48.236;9.894;2023-03-14T04:01:16;0.68;;;0.68;;
25988;SDS011;13778;48.236;9.894;2023-03-14T04:04:07;0.40;;;0.40;;
25988;SDS011;13778;48.236;9.894;2023-03-14T04:06:57;0.50;;;0.50;;
25988;SDS011;13778;48.236;9.894;2023-03-14T04:09:49;0.60;;;0.60;;
25988;SDS011;13778;48.236;9.894;2023-03-14T04:12:39;0.30;;;0.30;;
25988;SDS011;13778;48.236;9.894;2023-03-14T04:15:30;2.35;;;2.10;;
25988;SDS011;13778;48.236;9.894;2023-03-14T04:18:21;4.72;;;2.97;;
25988;SDS011;13778;48.236;9.894;2023-03-14T04:21:11;2.23;;;1.63;;
25988;SDS011;13778;48.236;9.894;2023-03-14T04:24:02;15.90;;;7.70;;
25988;SDS011;13778;48.236;9.894;2023-03-14T04:26:54;3.00;;;2.22;;
25988;SDS011;13778;48.236;9.894;2023-03-14T04:29:44;5.97;;;3.08;;
25988;SDS011;13778;48.236;9.894;2023-03-14T04:32:35;0.60;;;0.60;;
25988;SDS011;13778;48.236;9.894;2023-03-14T04:35:26;0.73;;;0.73;;
25988;SDS011;13778;48.236;9.894;2023-03-14T04:38:16;0.50;;;0.50;;
25988;SDS011;13778;48.236;9.894;2023-03-14T04:41:07;1.92;;;0.40;;
25988;SDS011;13778;48.236;9.894;2023-03-14T04:43:59;1.13;;;0.40;;
25988;SDS011;13778;48.236;9.894;2023-03-14T04:46:49;0.43;;;0.43;;
25988;SDS011;13778;48.236;9.894;2023-03-14T04:49:40;1.77;;;0.70;;
25988;SDS011;13778;48.236;9.894;2023-03-14T04:52:31;0.75;;;0.40;;
25988;SDS011;13778;48.236;9.894;2023-03-14T04:55:21;0.60;;;0.38;;
25988;SDS011;13778;48.236;9.894;2023-03-14T04:58:12;0.75;;;0.73;;
25988;SDS011;13778;48.236;9.894;2023-03-14T05:01:04;1.20;;;0.40;;
25988;SDS011;13778;48.236;9.894;2023-03-14T05:03:54;1.23;;;0.57;;
25988;SDS011;13778;48.236;9.894;2023-03-14T05:06:45;1.85;;;0.55;;
25988;SDS011;13778;48.236;9.894;2023-03-14T05:09:35;1.48;;;0.60;;
25988;SDS011;13778;48.236;9.894;2023-03-14T05:12:26;0.85;;;0.63;;
25988;SDS011;13778;48.236;9.894;2023-03-14T05:15:16;1.08;;;0.73;;
25988;SDS011;13778;48.236;9.894;2023-03-14T05:18:08;0.77;;;0.38;;
25988;SDS011;13778;48.236;9.894;2023-03-14T05:20:58;0.57;;;0.38;;
25988;SDS011;13778;48.236;9.894;2023-03-14T05:23:49;0.68;;;0.60;;
25988;SDS011;13778;48.236;9.894;2023-03-14T05:26:39;0.50;;;0.50;;
25988;SDS011;13778;48.236;9.894;2023-03-14T05:29:30;0.30;;;0.30;;
25988;SDS011;13778;48.236;9.894;2023-03-14T05:32:21;0.38;;;0.35;;
25988;SDS011;13778;48.236;9.894;2023-03-14T05:35:12;0.77;;;0.70;;
25988;SDS011;13778;48.236;9.894;2023-03-14T05:40:53;0.30;;;0.30;;
25988;SDS011;13778;48.236;9.894;2023-03-14T05:43:43;0.93;;;0.50;;
25988;SDS011;13778;48.236;9.894;2023-03-14T05:46:34;2.28;;;0.43;;
25988;SDS011;13778;48.236;9.894;2023-03-14T05:49:24;0.65;;;0.40;;
25988;SDS011;13778;48.236;9.894;2023-03-14T05:52:16;4.30;;;0.40;;
25988;SDS011;13778;48.236;9.894;2023-03-14T05:57:57;1.00;;;0.68;;
25988;SDS011;13778;48.236;9.894;2023-03-14T06:00:47;1.77;;;0.47;;
25988;SDS011;13778;48.236;9.894;2023-03-14T06:03:38;0.93;;;0.50;;
25988;SDS011;13778;48.236;9.894;2023-03-14T06:06:29;0.30;;;0.30;;
25988;SDS011;13778;48.236;9.894;2023-03-14T06:09:20;0.50;;;0.30;;
25988;SDS011;13778;48.236;9.894;2023-03-14T06:12:12;0.52;;;0.50;;
25988;SDS011;13778;48.236;9.894;2023-03-14T06:15:03;0.90;;;0.60;;
25988;SDS011;13778;48.236;9.894;2023-03-14T06:17:53;0.50;;;0.50;;
25988;SDS011;13778;48.236;9.894;2023-03-14T06:20:44;3.42;;;0.47;;
25988;SDS011;13778;48.236;9.894;2023-03-14T06:23:34;0.73;;;0.60;;
25988;SDS011;13778;48.236;9.894;2023-03-14T06:26:26;0.40;;;0.40;;
25988;SDS011;13778;48.236;9.894;2023-03-14T06:29:17;1.65;;;0.60;;
25988;SDS011;13778;48.236;9.894;2023-03-14T06:32:08;1.65;;;0.40;;
25988;SDS011;13778;48.236;9.894;2023-03-14T06:34:58;0.80;;;0.50;;
25988;SDS011;13778;48.236;9.894;2023-03-14T06:37:50;0.63;;;0.50;;
25988;SDS011;13778;48.236;9.894;2023-03-14T06:40:40;0.43;;;0.43;;
25988;SDS011;13778;48.236;9.894;2023-03-14T06:43:32;1.73;;;0.50;;
25988;SDS011;13778;48.236;9.894;2023-03-14T06:49:12;0.47;;;0.40;;
25988;SDS011;13778;48.236;9.894;2023-03-14T06:52:03;0.80;;;0.50;;
25988;SDS011;13778;48.236;9.894;2023-03-14T06:54:54;0.70;;;0.60;;
25988;SDS011;13778;48.236;9.894;2023-03-14T06:57:44;1.05;;;0.40;;
25988;SDS011;13778;48.236;9.894;2023-03-14T07:00:36;0.30;;;0.30;;
25988;SDS011;13778;48.236;9.894;2023-03-14T07:03:26;1.35;;;0.50;;
25988;SDS011;13778;48.236;9.894;2023-03-14T07:06:17;1.00;;;0.50;;
25988;SDS011;13778;48.236;9.894;2023-03-14T07:09:07;0.38;;;0.38;;
25988;SDS011;13778;48.236;9.894;2023-03-14T07:11:58;0.50;;;0.50;;
25988;SDS011;13778;48.236;9.894;2023-03-14T07:14:48;0.60;;;0.60;;
25988;SDS011;13778;48.236;9.894;2023-03-14T07:17:40;0.47;;;0.45;;
25988;SDS011;13778;48.236;9.894;2023-03-14T07:23:21;3.50;;;0.68;;
25988;SDS011;13778;48.236;9.894;2023-03-14T07:26:12;1.50;;;0.77;;
25988;SDS011;13778;48.236;9.894;2023-03-14T07:29:02;0.77;;;0.60;;
25988;SDS011;13778;48.236;9.894;2023-03-14T07:31:53;1.33;;;0.70;;
25988;SDS011;13778;48.236;9.894;2023-03-14T07:34:45;4.05;;;0.80;;
25988;SDS011;13778;48.236;9.894;2023-03-14T07:37:35;0.55;;;0.38;;
25988;SDS011;13778;48.236;9.894;2023-03-14T07:40:25;0.55;;;0.50;;
25988;SDS011;13778;48.236;9.894;2023-03-14T07:43:16;1.90;;;1.00;;
25988;SDS011;13778;48.236;9.894;2023-03-14T07:46:07;1.52;;;0.65;;
25988;SDS011;13778;48.236;9.894;2023-03-14T07:48:57;0.95;;;0.60;;
25988;SDS011;13778;48.236;9.894;2023-03-14T07:51:49;2.45;;;0.80;;
25988;SDS011;13778;48.236;9.894;2023-03-14T07:54:40;3.13;;;0.77;;
25988;SDS011;13778;48.236;9.894;2023-03-14T07:57:30;0.95;;;0.88;;
25988;SDS011;13778;48.236;9.894;2023-03-14T08:00:21;0.47;;;0.47;;
25988;SDS011;13778;48.236;9.894;2023-03-14T08:03:12;1.42;;;0.68;;
25988;SDS011;13778;48.236;9.894;2023-03-14T08:06:02;0.43;;;0.43;;
25988;SDS011;13778;48.236;9.894;2023-03-14T08:08:54;1.88;;;0.50;;
25988;SDS011;13778;48.236;9.894;2023-03-14T08:11:44;1.15;;;0.60;;
25988;SDS011;13778;48.236;9.894;2023-03-14T08:14:35;0.38;;;0.38;;
25988;SDS011;13778;48.236;9.894;2023-03-14T08:17:26;0.65;;;0.50;;
25988;SDS011;13778;48.236;9.894;2023-03-14T08:20:17;0.90;;;0.50;;
25988;SDS011;13778;48.236;9.894;2023-03-14T08:23:07;0.60;;;0.43;;
25988;SDS011;13778;48.236;9.894;2023-03-14T08:25:59;2.25;;;0.60;;
25988;SDS011;13778;48.236;9.894;2023-03-14T08:28:49;0.95;;;0.63;;
25988;SDS011;13778;48.236;9.894;2023-03-14T08:31:40;2.28;;;0.50;;
25988;SDS011;13778;48.236;9.894;2023-03-14T08:34:32;0.88;;;0.60;;
25988;SDS011;13778;48.236;9.894;2023-03-14T08:37:22;0.85;;;0.47;;
25988;SDS011;13778;48.236;9.894;2023-03-14T08:40:13;1.90;;;0.50;;
25988;SDS011;13778;48.236;9.894;2023-03-14T08:43:07;1.15;;;0.60;;
25988;SDS011;13778;48.236;9.894;2023-03-14T08:48:47;1.27;;;0.55;;
25988;SDS011;13778;48.236;9.894;2023-03-14T08:51:38;0.47;;;0.47;;
25988;SDS011;13778;48.236;9.894;2023-03-14T08:54:28;0.60;;;0.30;;
25988;SDS011;13778;48.236;9.894;2023-03-14T08:57:19;0.65;;;0.60;;
25988;SDS011;13778;48.236;9.894;2023-03-14T09:00:12;0.60;;;0.43;;
25988;SDS011;13778;48.236;9.894;2023-03-14T09:03:04;2.78;;;0.70;;
25988;SDS011;13778;48.236;9.894;2023-03-14T09:05:54;0.38;;;0.32;;
25988;SDS011;13778;48.236;9.894;2023-03-14T09:08:45;0.30;;;0.30;;
25988;SDS011;13778;48.236;9.894;2023-03-14T09:11:35;0.90;;;0.45;;
25988;SDS011;13778;48.236;9.894;2023-03-14T09:14:26;0.65;;;0.52;;
25988;SDS011;13778;48.236;9.894;2023-03-14T09:17:17;0.45;;;0.40;;
25988;SDS011;13778;48.236;9.894;2023-03-14T09:20:08;2.20;;;0.50;;
25988;SDS011;13778;48.236;9.894;2023-03-14T09:22:59;0.75;;;0.50;;
25988;SDS011;13778;48.236;9.894;2023-03-14T09:25:53;1.55;;;0.70;;
25988;SDS011;13778;48.236;9.894;2023-03-14T09:28:44;2.00;;;0.38;;
25988;SDS011;13778;48.236;9.894;2023-03-14T09:31:34;1.10;;;0.60;;
25988;SDS011;13778;48.236;9.894;2023-03-14T09:34:26;3.28;;;0.50;;
25988;SDS011;13778;48.236;9.894;2023-03-14T09:37:16;1.67;;;0.57;;
25988;SDS011;13778;48.236;9.894;2023-03-14T09:40:09;1.33;;;0.47;;
25988;SDS011;13778;48.236;9.894;2023-03-14T09:43:02;2.38;;;0.60;;
25988;SDS011;13778;48.236;9.894;2023-03-14T09:45:53;0.50;;;0.50;;
25988;SDS011;13778;48.236;9.894;2023-03-14T09:48:43;1.17;;;0.43;;
25988;SDS011;13778;48.236;9.894;2023-03-14T09:51:35;0.30;;;0.30;;
25988;SDS011;13778;48.236;9.894;2023-03-14T09:54:32;0.25;;;0.25;;
25988;SDS011;13778;48.236;9.894;2023-03-14T09:57:25;1.10;;;0.60;;
25988;SDS011;13778;48.236;9.894;2023-03-14T10:00:16;0.50;;;0.50;;
25988;SDS011;13778;48.236;9.894;2023-03-14T10:03:19;1.17;;;0.43;;
25988;SDS011;13778;48.236;9.894;2023-03-14T10:06:11;2.78;;;0.68;;
25988;SDS011;13778;48.236;9.894;2023-03-14T10:09:03;0.30;;;0.30;;
25988;SDS011;13778;48.236;9.894;2023-03-14T10:11:55;0.30;;;0.30;;
25988;SDS011;13778;48.236;9.894;2023-03-14T10:14:47;0.60;;;0.40;;
25988;SDS011;13778;48.236;9.894;2023-03-14T10:17:39;1.95;;;0.50;;
25988;SDS011;13778;48.236;9.894;2023-03-14T10:20:31;0.55;;;0.30;;
25988;SDS011;13778;48.236;9.894;2023-03-14T10:23:26;0.35;;;0.35;;
25988;SDS011;13778;48.236;9.894;2023-03-14T10:26:18;0.63;;;0.47;;
25988;SDS011;13778;48.236;9.894;2023-03-14T10:29:13;1.75;;;0.40;;
25988;SDS011;13778;48.236;9.894;2023-03-14T10:32:04;0.73;;;0.30;;
25988;SDS011;13778;48.236;9.894;2023-03-14T10:35:07;0.38;;;0.38;;
25988;SDS011;13778;48.236;9.894;2023-03-14T10:37:59;1.02;;;0.60;;
25988;SDS011;13778;48.236;9.894;2023-03-14T10:40:50;0.80;;;0.30;;
25988;SDS011;13778;48.236;9.894;2023-03-14T10:43:43;0.38;;;0.38;;
25988;SDS011;13778;48.236;9.894;2023-03-14T10:46:33;1.33;;;0.45;;
25988;SDS011;13778;48.236;9.894;2023-03-14T10:49:26;0.73;;;0.30;;
25988;SDS011;13778;48.236;9.894;2023-03-14T10:52:20;1.70;;;0.40;;
25988;SDS011;13778;48.236;9.894;2023-03-14T10:55:12;0.28;;;0.28;;
25988;SDS011;13778;48.236;9.894;2023-03-14T10:58:02;0.50;;;0.43;;
25988;SDS011;13778;48.236;9.894;2023-03-14T11:04:04;0.30;;;0.30;;
25988;SDS011;13778;48.236;9.894;2023-03-14T11:06:59;0.43;;;0.43;;
25988;SDS011;13778;48.236;9.894;2023-03-14T11:09:54;0.20;;;0.20;;
25988;SDS011;13778;48.236;9.894;2023-03-14T11:12:49;2.25;;;0.50;;
25988;SDS011;13778;48.236;9.894;2023-03-14T11:15:42;0.38;;;0.30;;
25988;SDS011;13778;48.236;9.894;2023-03-14T11:18:46;2.97;;;0.60;;
25988;SDS011;13778;48.236;9.894;2023-03-14T11:21:42;2.03;;;0.40;;
25988;SDS011;13778;48.236;9.894;2023-03-14T11:24:41;2.30;;;0.60;;
25988;SDS011;13778;48.236;9.894;2023-03-14T11:27:39;0.35;;;0.35;;
25988;SDS011;13778;48.236;9.894;2023-03-14T11:30:32;0.10;;;0.10;;
25988;SDS011;13778;48.236;9.894;2023-03-14T11:33:24;0.57;;;0.20;;
25988;SDS011;13778;48.236;9.894;2023-03-14T11:36:18;0.30;;;0.30;;
25988;SDS011;13778;48.236;9.894;2023-03-14T11:39:11;1.02;;;0.57;;
25988;SDS011;13778;48.236;9.894;2023-03-14T11:42:03;0.30;;;0.30;;
25988;SDS011;13778;48.236;9.894;2023-03-14T11:44:54;0.25;;;0.25;;
25988;SDS011;13778;48.236;9.894;2023-03-14T11:47:45;0.20;;;0.20;;
25988;SDS011;13778;48.236;9.894;2023-03-14T11:50:38;0.38;;;0.38;;
25988;SDS011;13778;48.236;9.894;2023-03-14T11:53:34;0.20;;;0.20;;
25988;SDS011;13778;48.236;9.894;2023-03-14T11:56:29;0.15;;;0.15;;
25988;SDS011;13778;48.236;9.894;2023-03-14T11:59:22;2.50;;;0.30;;
25988;SDS011;13778;48.236;9.894;2023-03-14T12:02:16;0.47;;;0.47;;
25988;SDS011;13778;48.236;9.894;2023-03-14T12:05:22;0.43;;;0.40;;
25988;SDS011;13778;48.236;9.894;2023-03-14T12:08:19;2.95;;;0.47;;
25988;SDS011;13778;48.236;9.894;2023-03-14T12:11:13;0.30;;;0.30;;
25988;SDS011;13778;48.236;9.894;2023-03-14T12:14:17;2.17;;;0.30;;
25988;SDS011;13778;48.236;9.894;2023-03-14T12:17:17;0.20;;;0.20;;
25988;SDS011;13778;48.236;9.894;2023-03-14T12:20:15;0.30;;;0.30;;
25988;SDS011;13778;48.236;9.894;2023-03-14T12:23:09;3.25;;;0.25;;
25988;SDS011;13778;48.236;9.894;2023-03-14T12:26:08;3.92;;;0.60;;
25988;SDS011;13778;48.236;9.894;2023-03-14T12:29:11;1.42;;;0.47;;
25988;SDS011;13778;48.236;9.894;2023-03-14T12:32:20;2.78;;;1.00;;
25988;SDS011;13778;48.236;9.894;2023-03-14T12:38:17;1.05;;;0.80;;
25988;SDS011;13778;48.236;9.894;2023-03-14T12:41:14;2.22;;;0.45;;
25988;SDS011;13778;48.236;9.894;2023-03-14T12:50:35;0.28;;;0.28;;
25988;SDS011;13778;48.236;9.894;2023-03-14T12:53:37;0.50;;;0.40;;
25988;SDS011;13778;48.236;9.894;2023-03-14T12:56:42;0.40;;;0.40;;
25988;SDS011;13778;48.236;9.894;2023-03-14T12:59:35;2.08;;;1.30;;
25988;SDS011;13778;48.236;9.894;2023-03-14T13:02:26;2.95;;;1.42;;
25988;SDS011;13778;48.236;9.894;2023-03-14T13:05:18;1.15;;;1.02;;
25988;SDS011;13778;48.236;9.894;2023-03-14T13:08:10;0.60;;;0.60;;
25988;SDS011;13778;48.236;9.894;2023-03-14T13:13:52;4.05;;;3.30;;
25988;SDS011;13778;48.236;9.894;2023-03-14T13:16:46;2.40;;;1.70;;
25988;SDS011;13778;48.236;9.894;2023-03-14T13:19:36;1.75;;;1.33;;
25988;SDS011;13778;48.236;9.894;2023-03-14T13:22:28;1.35;;;1.10;;
25988;SDS011;13778;48.236;9.894;2023-03-14T13:25:20;1.42;;;1.20;;
25988;SDS011;13778;48.236;9.894;2023-03-14T13:28:11;3.60;;;1.33;;
25988;SDS011;13778;48.236;9.894;2023-03-14T13:31:04;1.00;;;0.93;;
25988;SDS011;13778;48.236;9.894;2023-03-14T13:33:58;3.15;;;1.52;;
25988;SDS011;13778;48.236;9.894;2023-03-14T13:36:51;0.80;;;0.80;;
25988;SDS011;13778;48.236;9.894;2023-03-14T13:39:41;1.95;;;0.60;;
25988;SDS011;13778;48.236;9.894;2023-03-14T13:42:34;1.73;;;0.50;;
25988;SDS011;13778;48.236;9.894;2023-03-14T13:45:25;0.45;;;0.45;;
25988;SDS011;13778;48.236;9.894;2023-03-14T13:48:15;0.50;;;0.50;;
25988;SDS011;13778;48.236;9.894;2023-03-14T13:51:07;2.87;;;0.70;;
25988;SDS011;13778;48.236;9.894;2023-03-14T13:56:49;0.52;;;0.52;;
25988;SDS011;13778;48.236;9.894;2023-03-14T13:59:59;0.77;;;0.70;;
25988;SDS011;13778;48.236;9.894;2023-03-14T14:02:54;0.60;;;0.60;;
25988;SDS011;13778;48.236;9.894;2023-03-14T14:05:45;0.82;;;0.77;;
25988;SDS011;13778;48.236;9.894;2023-03-14T14:08:36;1.65;;;1.25;;
25988;SDS011;13778;48.236;9.894;2023-03-14T14:11:32;1.13;;;0.70;;
25988;SDS011;13778;48.236;9.894;2023-03-14T14:14:26;1.35;;;0.82;;
25988;SDS011;13778;48.236;9.894;2023-03-14T14:20:12;0.60;;;0.60;;
25988;SDS011;13778;48.236;9.894;2023-03-14T14:23:09;0.63;;;0.50;;
25988;SDS011;13778;48.236;9.894;2023-03-14T14:26:01;1.58;;;0.57;;
25988;SDS011;13778;48.236;9.894;2023-03-14T14:28:57;0.70;;;0.70;;
25988;SDS011;13778;48.236;9.894;2023-03-14T14:31:48;2.58;;;0.80;;
25988;SDS011;13778;48.236;9.894;2023-03-14T14:34:56;0.90;;;0.90;;
25988;SDS011;13778;48.236;9.894;2023-03-14T14:37:48;4.32;;;1.00;;
25988;SDS011;13778;48.236;9.894;2023-03-14T14:40:43;1.30;;;0.70;;
25988;SDS011;13778;48.236;9.894;2023-03-14T14:43:35;1.15;;;0.70;;
25988;SDS011;13778;48.236;9.894;2023-03-14T14:46:27;1.40;;;0.90;;
25988;SDS011;13778;48.236;9.894;2023-03-14T14:49:18;1.13;;;0.80;;
25988;SDS011;13778;48.236;9.894;2023-03-14T14:52:10;4.80;;;1.02;;
25988;SDS011;13778;48.236;9.894;2023-03-14T14:55:02;0.80;;;0.60;;
25988;SDS011;13778;48.236;9.894;2023-03-14T15:00:48;1.33;;;0.63;;
25988;SDS011;13778;48.236;9.894;2023-03-14T15:03:41;2.55;;;0.70;;
25988;SDS011;13778;48.236;9.894;2023-03-14T15:06:31;1.70;;;0.77;;
25988;SDS011;13778;48.236;9.894;2023-03-14T15:09:22;3.05;;;0.82;;
25988;SDS011;13778;48.236;9.894;2023-03-14T15:12:14;1.88;;;0.80;;
25988;SDS011;13778;48.236;9.894;2023-03-14T15:15:04;0.68;;;0.68;;
25988;SDS011;13778;48.236;9.894;2023-03-14T15:17:55;1.10;;;0.73;;
25988;SDS011;13778;48.236;9.894;2023-03-14T15:20:45;1.48;;;0.82;;
25988;SDS011;13778;48.236;9.894;2023-03-14T15:23:36;1.15;;;1.05;;
25988;SDS011;13778;48.236;9.894;2023-03-14T15:26:27;1.85;;;1.10;;
25988;SDS011;13778;48.236;9.894;2023-03-14T15:29:19;1.33;;;0.90;;
25988;SDS011;13778;48.236;9.894;2023-03-14T15:34:59;1.45;;;0.70;;
25988;SDS011;13778;48.236;9.894;2023-03-14T15:37:50;3.10;;;0.82;;
25988;SDS011;13778;48.236;9.894;2023-03-14T15:40:41;3.80;;;1.17;;
25988;SDS011;13778;48.236;9.894;2023-03-14T15:43:31;2.47;;;0.80;;
25988;SDS011;13778;48.236;9.894;2023-03-14T15:46:23;1.98;;;1.20;;
25988;SDS011;13778;48.236;9.894;2023-03-14T15:52:04;3.83;;;1.30;;
25988;SDS011;13778;48.236;9.894;2023-03-14T15:54:56;2.17;;;0.80;;
25988;SDS011;13778;48.236;9.894;2023-03-14T15:57:47;3.67;;;0.90;;
25988;SDS011;13778;48.236;9.894;2023-03-14T16:00:37;4.35;;;1.00;;
25988;SDS011;13778;48.236;9.894;2023-03-14T16:03:29;1.85;;;1.33;;
25988;SDS011;13778;48.236;9.894;2023-03-14T16:06:20;2.67;;;1.20;;
25988;SDS011;13778;48.236;9.894;2023-03-14T16:09:10;5.30;;;1.48;;
25988;SDS011;13778;48.236;9.894;2023-03-14T16:12:01;1.17;;;0.77;;
25988;SDS011;13778;48.236;9.894;2023-03-14T16:14:53;1.58;;;0.90;;
25988;SDS011;13778;48.236;9.894;2023-03-14T16:17:44;0.93;;;0.73;;
25988;SDS011;13778;48.236;9.894;2023-03-14T16:20:35;9.80;;;2.88;;
25988;SDS011;13778;48.236;9.894;2023-03-14T16:23:27;2.08;;;1.45;;
25988;SDS011;13778;48.236;9.894;2023-03-14T16:26:18;2.78;;;1.27;;
25988;SDS011;13778;48.236;9.894;2023-03-14T16:29:08;2.67;;;1.17;;
25988;SDS011;13778;48.236;9.894;2023-03-14T16:31:59;1.15;;;0.70;;
25988;SDS011;13778;48.236;9.894;2023-03-14T16:34:49;9.13;;;2.17;;
25988;SDS011;13778;48.236;9.894;2023-03-14T16:37:41;5.25;;;2.03;;
25988;SDS011;13778;48.236;9.894;2023-03-14T16:43:22;4.68;;;2.10;;
25988;SDS011;13778;48.236;9.894;2023-03-14T16:46:13;19.52;;;8.68;;
25988;SDS011;13778;48.236;9.894;2023-03-14T16:49:04;10.60;;;5.70;;
25988;SDS011;13778;48.236;9.894;2023-03-14T16:51:55;8.15;;;4.00;;
25988;SDS011;13778;48.236;9.894;2023-03-14T16:54:46;4.55;;;2.22;;
25988;SDS011;13778;48.236;9.894;2023-03-14T16:57:37;2.70;;;1.67;;
25988;SDS011;13778;48.236;9.894;2023-03-14T17:00:27;3.15;;;1.73;;
25988;SDS011;13778;48.236;9.894;2023-03-14T17:03:18;2.72;;;1.48;;
25988;SDS011;13778;48.236;9.894;2023-03-14T17:06:09;2.42;;;1.67;;
25988;SDS011;13778;48.236;9.894;2023-03-14T17:09:00;4.82;;;1.58;;
25988;SDS011;13778;48.236;9.894;2023-03-14T17:11:54;4.03;;;1.33;;
25988;SDS011;13778;48.236;9.894;2023-03-14T17:14:44;3.00;;;1.45;;
25988;SDS011;13778;48.236;9.894;2023-03-14T17:17:35;9.32;;;1.48;;
25988;SDS011;13778;48.236;9.894;2023-03-14T17:20:25;1.67;;;0.90;;
25988;SDS011;13778;48.236;9.894;2023-03-14T17:23:16;3.42;;;1.88;;
25988;SDS011;13778;48.236;9.894;2023-03-14T17:26:07;5.95;;;1.67;;
25988;SDS011;13778;48.236;9.894;2023-03-14T17:28:58;5.10;;;3.40;;
25988;SDS011;13778;48.236;9.894;2023-03-14T17:31:49;3.40;;;1.58;;
25988;SDS011;13778;48.236;9.894;2023-03-14T17:34:39;3.15;;;1.58;;
25988;SDS011;13778;48.236;9.894;2023-03-14T17:37:30;5.28;;;1.83;;
25988;SDS011;13778;48.236;9.894;2023-03-14T17:40:20;4.45;;;2.10;;
25988;SDS011;13778;48.236;9.894;2023-03-14T17:43:11;4.13;;;1.75;;
25988;SDS011;13778;48.236;9.894;2023-03-14T17:46:04;8.95;;;1.73;;
25988;SDS011;13778;48.236;9.894;2023-03-14T17:48:57;3.65;;;1.60;;
25988;SDS011;13778;48.236;9.894;2023-03-14T17:51:47;2.67;;;1.45;;
25988;SDS011;13778;48.236;9.894;2023-03-14T17:54:38;4.78;;;1.42;;
25988;SDS011;13778;48.236;9.894;2023-03-14T17:57:28;4.25;;;1.40;;
25988;SDS011;13778;48.236;9.894;2023-03-14T18:00:19;2.78;;;1.60;;
25988;SDS011;13778;48.236;9.894;2023-03-14T18:03:12;5.70;;;2.08;;
25988;SDS011;13778;48.236;9.894;2023-03-14T18:06:03;5.75;;;2.30;;
25988;SDS011;13778;48.236;9.894;2023-03-14T18:08:54;5.20;;;2.00;;
25988;SDS011;13778;48.236;9.894;2023-03-14T18:11:44;3.75;;;2.20;;
25988;SDS011;13778;48.236;9.894;2023-03-14T18:14:35;6.50;;;1.73;;